sensor_id;sensor_type;location;lat;lon;timestamp;P1;durP1;ratioP1;P2;durP2;ratioP2
58468;SDS011;44257;44.804;10.220;2023-08-01T00:02:10;4.25;;;2.80;;
58468;SDS011;44257;44.804;10.220;2023-08-01T00:04:36;5.72;;;3.25;;
58468;SDS011;44257;44.804;10.220;2023-08-01T00:07:02;6.57;;;2.92;;
58468;SDS011;44257;44.804;10.220;2023-08-01T00:09:28;5.53;;;3.10;;
58468;SDS011;44257;44.804;10.220;2023-08-01T00:11:53;5.18;;;3.10;;
58468;SDS011;44257;44.804;10.220;2023-08-01T00:14:20;5.13;;;2.70;;
58468;SDS011;44257;44.804;10.220;2023-08-01T00:16:49;5.07;;;2.95;;
58468;SDS011;44257;44.804;10.220;2023-08-01T00:19:15;5.80;;;3.60;;
58468;SDS011;44257;44.804;10.220;2023-08-01T00:21:41;6.00;;;2.92;;
58468;SDS011;44257;44.804;10.220;2023-08-01T00:24:07;4.68;;;2.75;;
58468;SDS011;44257;44.804;10.220;2023-08-01T00:26:33;7.68;;;3.33;;
58468;SDS011;44257;44.804;10.220;2023-08-01T00:28:59;7.30;;;2.95;;
58468;SDS011;44257;44.804;10.220;2023-08-01T00:31:26;6.30;;;3.05;;
58468;SDS011;44257;44.804;10.220;2023-08-01T00:33:51;6.15;;;3.15;;
58468;SDS011;44257;44.804;10.220;2023-08-01T00:36:19;5.30;;;2.72;;
58468;SDS011;44257;44.804;10.220;2023-08-01T00:38:45;4.88;;;2.88;;
58468;SDS011;44257;44.804;10.220;2023-08-01T00:41:10;3.65;;;2.45;;
58468;SDS011;44257;44.804;10.220;2023-08-01T00:43:36;4.72;;;2.90;;
58468;SDS011;44257;44.804;10.220;2023-08-01T00:46:04;4.55;;;2.85;;
58468;SDS011;44257;44.804;10.220;2023-08-01T00:48:31;4.20;;;2.95;;
58468;SDS011;44257;44.804;10.220;2023-08-01T00:50:58;4.10;;;2.67;;
58468;SDS011;44257;44.804;10.220;2023-08-01T00:53:25;4.22;;;2.70;;
58468;SDS011;44257;44.804;10.220;2023-08-01T00:55:52;6.07;;;2.78;;
58468;SDS011;44257;44.804;10.220;2023-08-01T00:58:19;5.53;;;2.65;;
58468;SDS011;44257;44.804;10.220;2023-08-01T01:00:46;5.53;;;2.78;;
58468;SDS011;44257;44.804;10.220;2023-08-01T01:03:13;5.15;;;2.78;;
58468;SDS011;44257;44.804;10.220;2023-08-01T01:05:40;5.65;;;3.00;;
58468;SDS011;44257;44.804;10.220;2023-08-01T01:08:13;5.43;;;3.05;;
58468;SDS011;44257;44.804;10.220;2023-08-01T01:10:39;6.18;;;3.10;;
58468;SDS011;44257;44.804;10.220;2023-08-01T01:13:06;6.70;;;2.80;;
58468;SDS011;44257;44.804;10.220;2023-08-01T01:15:33;6.07;;;2.78;;
58468;SDS011;44257;44.804;10.220;2023-08-01T01:18:05;7.88;;;3.13;;
58468;SDS011;44257;44.804;10.220;2023-08-01T01:20:34;4.45;;;2.83;;
58468;SDS011;44257;44.804;10.220;2023-08-01T01:23:00;4.03;;;2.72;;
58468;SDS011;44257;44.804;10.220;2023-08-01T01:25:29;4.43;;;2.53;;
58468;SDS011;44257;44.804;10.220;2023-08-01T01:27:56;4.38;;;2.85;;
58468;SDS011;44257;44.804;10.220;2023-08-01T01:30:24;6.88;;;3.10;;
58468;SDS011;44257;44.804;10.220;2023-08-01T01:32:50;3.35;;;2.22;;
58468;SDS011;44257;44.804;10.220;2023-08-01T01:35:17;4.82;;;2.60;;
58468;SDS011;44257;44.804;10.220;2023-08-01T01:37:43;4.95;;;2.53;;
58468;SDS011;44257;44.804;10.220;2023-08-01T01:40:09;5.22;;;2.78;;
58468;SDS011;44257;44.804;10.220;2023-08-01T01:42:36;4.85;;;2.92;;
58468;SDS011;44257;44.804;10.220;2023-08-01T01:45:02;7.05;;;2.70;;
58468;SDS011;44257;44.804;10.220;2023-08-01T01:47:28;5.75;;;2.97;;
58468;SDS011;44257;44.804;10.220;2023-08-01T01:49:54;5.35;;;2.58;;
58468;SDS011;44257;44.804;10.220;2023-08-01T01:52:21;5.32;;;2.65;;
58468;SDS011;44257;44.804;10.220;2023-08-01T01:54:47;14.98;;;3.30;;
58468;SDS011;44257;44.804;10.220;2023-08-01T01:57:13;7.70;;;2.65;;
58468;SDS011;44257;44.804;10.220;2023-08-01T01:59:39;5.25;;;2.80;;
58468;SDS011;44257;44.804;10.220;2023-08-01T02:02:05;7.90;;;2.70;;
58468;SDS011;44257;44.804;10.220;2023-08-01T02:04:31;10.70;;;3.20;;
58468;SDS011;44257;44.804;10.220;2023-08-01T02:06:57;6.65;;;2.60;;
58468;SDS011;44257;44.804;10.220;2023-08-01T02:09:22;7.90;;;2.70;;
58468;SDS011;44257;44.804;10.220;2023-08-01T02:11:49;3.70;;;2.38;;
58468;SDS011;44257;44.804;10.220;2023-08-01T02:14:15;5.85;;;2.60;;
58468;SDS011;44257;44.804;10.220;2023-08-01T02:16:41;4.78;;;2.75;;
58468;SDS011;44257;44.804;10.220;2023-08-01T02:19:08;4.85;;;2.80;;
58468;SDS011;44257;44.804;10.220;2023-08-01T02:21:34;6.70;;;2.78;;
58468;SDS011;44257;44.804;10.220;2023-08-01T02:23:59;6.82;;;2.65;;
58468;SDS011;44257;44.804;10.220;2023-08-01T02:26:25;4.53;;;2.70;;
58468;SDS011;44257;44.804;10.220;2023-08-01T02:28:51;5.63;;;2.47;;
58468;SDS011;44257;44.804;10.220;2023-08-01T02:31:17;5.35;;;3.30;;
58468;SDS011;44257;44.804;10.220;2023-08-01T02:33:44;6.95;;;3.15;;
58468;SDS011;44257;44.804;10.220;2023-08-01T02:36:10;4.68;;;3.05;;
58468;SDS011;44257;44.804;10.220;2023-08-01T02:38:36;5.55;;;3.10;;
58468;SDS011;44257;44.804;10.220;2023-08-01T02:41:01;8.73;;;2.90;;
58468;SDS011;44257;44.804;10.220;2023-08-01T02:43:27;5.65;;;2.67;;
58468;SDS011;44257;44.804;10.220;2023-08-01T02:45:53;5.70;;;2.47;;
58468;SDS011;44257;44.804;10.220;2023-08-01T02:48:19;4.70;;;2.75;;
58468;SDS011;44257;44.804;10.220;2023-08-01T02:50:45;4.18;;;2.60;;
58468;SDS011;44257;44.804;10.220;2023-08-01T02:53:11;7.88;;;2.63;;
58468;SDS011;44257;44.804;10.220;2023-08-01T02:55:37;6.90;;;3.22;;
58468;SDS011;44257;44.804;10.220;2023-08-01T02:58:03;5.00;;;2.83;;
58468;SDS011;44257;44.804;10.220;2023-08-01T03:00:29;5.03;;;2.90;;
58468;SDS011;44257;44.804;10.220;2023-08-01T03:02:56;6.30;;;2.90;;
58468;SDS011;44257;44.804;10.220;2023-08-01T03:05:22;4.85;;;2.97;;
58468;SDS011;44257;44.804;10.220;2023-08-01T03:07:48;4.35;;;2.78;;
58468;SDS011;44257;44.804;10.220;2023-08-01T03:10:14;4.60;;;2.70;;
58468;SDS011;44257;44.804;10.220;2023-08-01T03:12:39;4.82;;;2.65;;
58468;SDS011;44257;44.804;10.220;2023-08-01T03:15:05;6.32;;;2.67;;
58468;SDS011;44257;44.804;10.220;2023-08-01T03:17:34;6.00;;;3.15;;
58468;SDS011;44257;44.804;10.220;2023-08-01T03:20:01;5.10;;;2.83;;
58468;SDS011;44257;44.804;10.220;2023-08-01T03:22:28;5.88;;;3.28;;
58468;SDS011;44257;44.804;10.220;2023-08-01T03:24:54;5.75;;;3.00;;
58468;SDS011;44257;44.804;10.220;2023-08-01T03:27:20;5.30;;;3.13;;
58468;SDS011;44257;44.804;10.220;2023-08-01T03:29:46;6.10;;;2.90;;
58468;SDS011;44257;44.804;10.220;2023-08-01T03:32:12;3.85;;;2.58;;
58468;SDS011;44257;44.804;10.220;2023-08-01T03:34:38;4.82;;;2.95;;
58468;SDS011;44257;44.804;10.220;2023-08-01T03:37:06;5.55;;;3.17;;
58468;SDS011;44257;44.804;10.220;2023-08-01T03:39:32;4.68;;;2.47;;
58468;SDS011;44257;44.804;10.220;2023-08-01T03:41:58;5.95;;;2.75;;
58468;SDS011;44257;44.804;10.220;2023-08-01T03:44:25;4.75;;;2.60;;
58468;SDS011;44257;44.804;10.220;2023-08-01T03:46:51;7.15;;;2.65;;
58468;SDS011;44257;44.804;10.220;2023-08-01T03:49:18;4.70;;;2.70;;
58468;SDS011;44257;44.804;10.220;2023-08-01T03:51:44;6.00;;;2.55;;
58468;SDS011;44257;44.804;10.220;2023-08-01T03:54:10;4.47;;;2.53;;
58468;SDS011;44257;44.804;10.220;2023-08-01T03:56:36;4.10;;;2.75;;
58468;SDS011;44257;44.804;10.220;2023-08-01T03:59:05;5.55;;;2.70;;
58468;SDS011;44257;44.804;10.220;2023-08-01T04:01:31;5.65;;;2.90;;
58468;SDS011;44257;44.804;10.220;2023-08-01T04:03:57;8.93;;;2.83;;
58468;SDS011;44257;44.804;10.220;2023-08-01T04:06:23;6.35;;;2.60;;
58468;SDS011;44257;44.804;10.220;2023-08-01T04:08:48;6.22;;;2.72;;
58468;SDS011;44257;44.804;10.220;2023-08-01T04:11:15;5.75;;;2.97;;
58468;SDS011;44257;44.804;10.220;2023-08-01T04:13:40;7.28;;;3.05;;
58468;SDS011;44257;44.804;10.220;2023-08-01T04:16:06;6.15;;;3.13;;
58468;SDS011;44257;44.804;10.220;2023-08-01T04:18:32;6.03;;;2.80;;
58468;SDS011;44257;44.804;10.220;2023-08-01T04:20:58;4.70;;;2.95;;
58468;SDS011;44257;44.804;10.220;2023-08-01T04:23:24;7.00;;;3.00;;
58468;SDS011;44257;44.804;10.220;2023-08-01T04:25:49;6.00;;;3.15;;
58468;SDS011;44257;44.804;10.220;2023-08-01T04:28:15;5.35;;;2.78;;
58468;SDS011;44257;44.804;10.220;2023-08-01T04:30:41;6.43;;;2.78;;
58468;SDS011;44257;44.804;10.220;2023-08-01T04:33:07;6.65;;;3.00;;
58468;SDS011;44257;44.804;10.220;2023-08-01T04:35:32;5.72;;;2.90;;
58468;SDS011;44257;44.804;10.220;2023-08-01T04:37:58;7.55;;;2.90;;
58468;SDS011;44257;44.804;10.220;2023-08-01T04:40:24;17.63;;;4.15;;
58468;SDS011;44257;44.804;10.220;2023-08-01T04:42:50;11.77;;;2.90;;
58468;SDS011;44257;44.804;10.220;2023-08-01T04:45:15;7.05;;;3.13;;
58468;SDS011;44257;44.804;10.220;2023-08-01T04:47:42;16.85;;;4.40;;
58468;SDS011;44257;44.804;10.220;2023-08-01T04:50:07;6.00;;;2.70;;
58468;SDS011;44257;44.804;10.220;2023-08-01T04:52:33;5.10;;;2.67;;
58468;SDS011;44257;44.804;10.220;2023-08-01T04:54:59;4.65;;;2.55;;
58468;SDS011;44257;44.804;10.220;2023-08-01T04:57:25;7.07;;;2.92;;
58468;SDS011;44257;44.804;10.220;2023-08-01T04:59:51;20.25;;;4.20;;
58468;SDS011;44257;44.804;10.220;2023-08-01T05:02:17;15.55;;;5.18;;
58468;SDS011;44257;44.804;10.220;2023-08-01T05:04:42;13.60;;;3.55;;
58468;SDS011;44257;44.804;10.220;2023-08-01T05:07:08;12.32;;;3.83;;
58468;SDS011;44257;44.804;10.220;2023-08-01T05:09:34;9.05;;;3.10;;
58468;SDS011;44257;44.804;10.220;2023-08-01T05:12:00;7.63;;;3.13;;
58468;SDS011;44257;44.804;10.220;2023-08-01T05:14:26;5.65;;;2.70;;
58468;SDS011;44257;44.804;10.220;2023-08-01T05:16:51;6.38;;;2.88;;
58468;SDS011;44257;44.804;10.220;2023-08-01T05:19:17;4.55;;;2.80;;
58468;SDS011;44257;44.804;10.220;2023-08-01T05:21:43;6.13;;;3.00;;
58468;SDS011;44257;44.804;10.220;2023-08-01T05:24:09;7.22;;;3.13;;
58468;SDS011;44257;44.804;10.220;2023-08-01T05:26:36;6.20;;;2.67;;
58468;SDS011;44257;44.804;10.220;2023-08-01T05:29:02;6.78;;;3.03;;
58468;SDS011;44257;44.804;10.220;2023-08-01T05:31:27;4.72;;;2.72;;
58468;SDS011;44257;44.804;10.220;2023-08-01T05:33:53;6.60;;;2.88;;
58468;SDS011;44257;44.804;10.220;2023-08-01T05:36:19;7.70;;;3.80;;
58468;SDS011;44257;44.804;10.220;2023-08-01T05:38:45;20.88;;;5.93;;
58468;SDS011;44257;44.804;10.220;2023-08-01T05:41:11;20.73;;;5.30;;
58468;SDS011;44257;44.804;10.220;2023-08-01T05:43:36;23.60;;;5.78;;
58468;SDS011;44257;44.804;10.220;2023-08-01T05:46:02;17.63;;;4.40;;
58468;SDS011;44257;44.804;10.220;2023-08-01T05:48:28;14.73;;;4.57;;
58468;SDS011;44257;44.804;10.220;2023-08-01T05:50:54;13.63;;;3.53;;
58468;SDS011;44257;44.804;10.220;2023-08-01T05:53:21;9.73;;;3.38;;
58468;SDS011;44257;44.804;10.220;2023-08-01T05:55:47;10.35;;;3.88;;
58468;SDS011;44257;44.804;10.220;2023-08-01T05:58:13;7.65;;;3.28;;
58468;SDS011;44257;44.804;10.220;2023-08-01T06:00:38;8.02;;;3.50;;
58468;SDS011;44257;44.804;10.220;2023-08-01T06:03:04;7.63;;;3.55;;
58468;SDS011;44257;44.804;10.220;2023-08-01T06:05:31;5.03;;;2.72;;
58468;SDS011;44257;44.804;10.220;2023-08-01T06:07:57;4.85;;;2.63;;
58468;SDS011;44257;44.804;10.220;2023-08-01T06:10:23;7.65;;;3.03;;
58468;SDS011;44257;44.804;10.220;2023-08-01T06:12:49;5.63;;;2.75;;
58468;SDS011;44257;44.804;10.220;2023-08-01T06:15:18;10.23;;;3.40;;
58468;SDS011;44257;44.804;10.220;2023-08-01T06:17:44;4.45;;;3.10;;
58468;SDS011;44257;44.804;10.220;2023-08-01T06:20:10;7.25;;;3.25;;
58468;SDS011;44257;44.804;10.220;2023-08-01T06:22:36;8.05;;;3.15;;
58468;SDS011;44257;44.804;10.220;2023-08-01T06:25:02;4.60;;;2.58;;
58468;SDS011;44257;44.804;10.220;2023-08-01T06:27:28;8.65;;;3.15;;
58468;SDS011;44257;44.804;10.220;2023-08-01T06:29:54;8.25;;;2.90;;
58468;SDS011;44257;44.804;10.220;2023-08-01T06:32:20;7.18;;;3.03;;
58468;SDS011;44257;44.804;10.220;2023-08-01T06:34:46;5.45;;;2.80;;
58468;SDS011;44257;44.804;10.220;2023-08-01T06:37:11;9.07;;;3.55;;
58468;SDS011;44257;44.804;10.220;2023-08-01T06:39:37;7.32;;;3.53;;
58468;SDS011;44257;44.804;10.220;2023-08-01T06:42:03;8.70;;;2.97;;
58468;SDS011;44257;44.804;10.220;2023-08-01T06:44:29;5.93;;;3.03;;
58468;SDS011;44257;44.804;10.220;2023-08-01T06:46:55;7.45;;;3.15;;
58468;SDS011;44257;44.804;10.220;2023-08-01T06:49:21;6.30;;;2.83;;
58468;SDS011;44257;44.804;10.220;2023-08-01T06:51:47;6.32;;;3.35;;
58468;SDS011;44257;44.804;10.220;2023-08-01T06:54:14;6.32;;;3.88;;
58468;SDS011;44257;44.804;10.220;2023-08-01T06:56:39;9.85;;;3.45;;
58468;SDS011;44257;44.804;10.220;2023-08-01T06:59:05;5.82;;;3.10;;
58468;SDS011;44257;44.804;10.220;2023-08-01T07:01:32;9.70;;;3.30;;
58468;SDS011;44257;44.804;10.220;2023-08-01T07:03:58;4.78;;;2.72;;
58468;SDS011;44257;44.804;10.220;2023-08-01T07:06:24;7.13;;;2.72;;
58468;SDS011;44257;44.804;10.220;2023-08-01T07:08:50;5.47;;;2.90;;
58468;SDS011;44257;44.804;10.220;2023-08-01T07:11:15;5.05;;;2.78;;
58468;SDS011;44257;44.804;10.220;2023-08-01T07:13:41;8.90;;;3.30;;
58468;SDS011;44257;44.804;10.220;2023-08-01T07:16:07;7.80;;;3.53;;
58468;SDS011;44257;44.804;10.220;2023-08-01T07:18:33;10.05;;;3.25;;
58468;SDS011;44257;44.804;10.220;2023-08-01T07:21:02;8.20;;;3.25;;
58468;SDS011;44257;44.804;10.220;2023-08-01T07:23:29;8.23;;;3.83;;
58468;SDS011;44257;44.804;10.220;2023-08-01T07:25:55;5.93;;;3.72;;
58468;SDS011;44257;44.804;10.220;2023-08-01T07:28:21;6.35;;;3.47;;
58468;SDS011;44257;44.804;10.220;2023-08-01T07:30:48;9.13;;;4.00;;
58468;SDS011;44257;44.804;10.220;2023-08-01T07:33:15;7.60;;;3.65;;
58468;SDS011;44257;44.804;10.220;2023-08-01T07:35:41;8.13;;;4.10;;
58468;SDS011;44257;44.804;10.220;2023-08-01T07:38:07;6.88;;;3.67;;
58468;SDS011;44257;44.804;10.220;2023-08-01T07:40:35;6.43;;;3.42;;
58468;SDS011;44257;44.804;10.220;2023-08-01T07:43:01;5.97;;;3.42;;
58468;SDS011;44257;44.804;10.220;2023-08-01T07:45:27;6.47;;;3.15;;
58468;SDS011;44257;44.804;10.220;2023-08-01T07:47:53;9.73;;;3.97;;
58468;SDS011;44257;44.804;10.220;2023-08-01T07:50:19;7.75;;;3.47;;
58468;SDS011;44257;44.804;10.220;2023-08-01T07:52:44;5.63;;;3.60;;
58468;SDS011;44257;44.804;10.220;2023-08-01T07:55:10;6.22;;;3.35;;
58468;SDS011;44257;44.804;10.220;2023-08-01T07:57:36;5.05;;;3.35;;
58468;SDS011;44257;44.804;10.220;2023-08-01T08:00:02;5.18;;;3.10;;
58468;SDS011;44257;44.804;10.220;2023-08-01T08:02:38;6.70;;;3.40;;
58468;SDS011;44257;44.804;10.220;2023-08-01T08:05:06;5.88;;;3.70;;
58468;SDS011;44257;44.804;10.220;2023-08-01T08:07:32;5.75;;;3.55;;
58468;SDS011;44257;44.804;10.220;2023-08-01T08:09:57;6.72;;;3.20;;
58468;SDS011;44257;44.804;10.220;2023-08-01T08:12:23;6.72;;;3.72;;
58468;SDS011;44257;44.804;10.220;2023-08-01T08:14:49;5.50;;;3.13;;
58468;SDS011;44257;44.804;10.220;2023-08-01T08:17:15;9.10;;;3.42;;
58468;SDS011;44257;44.804;10.220;2023-08-01T08:19:41;6.10;;;3.60;;
58468;SDS011;44257;44.804;10.220;2023-08-01T08:22:07;5.18;;;3.50;;
58468;SDS011;44257;44.804;10.220;2023-08-01T08:24:33;7.72;;;3.55;;
58468;SDS011;44257;44.804;10.220;2023-08-01T08:27:00;6.05;;;3.97;;
58468;SDS011;44257;44.804;10.220;2023-08-01T08:29:26;7.13;;;3.90;;
58468;SDS011;44257;44.804;10.220;2023-08-01T08:31:52;7.30;;;3.72;;
58468;SDS011;44257;44.804;10.220;2023-08-01T08:34:18;8.65;;;3.70;;
58468;SDS011;44257;44.804;10.220;2023-08-01T08:36:43;7.70;;;4.05;;
58468;SDS011;44257;44.804;10.220;2023-08-01T08:39:11;10.02;;;3.65;;
58468;SDS011;44257;44.804;10.220;2023-08-01T08:41:38;10.13;;;4.18;;
58468;SDS011;44257;44.804;10.220;2023-08-01T08:44:10;11.20;;;3.95;;
58468;SDS011;44257;44.804;10.220;2023-08-01T08:46:40;11.10;;;3.63;;
58468;SDS011;44257;44.804;10.220;2023-08-01T08:49:08;8.13;;;3.92;;
58468;SDS011;44257;44.804;10.220;2023-08-01T08:51:36;6.53;;;3.80;;
58468;SDS011;44257;44.804;10.220;2023-08-01T08:54:06;9.75;;;4.00;;
58468;SDS011;44257;44.804;10.220;2023-08-01T08:56:34;6.78;;;4.15;;
58468;SDS011;44257;44.804;10.220;2023-08-01T08:59:00;6.20;;;3.83;;
58468;SDS011;44257;44.804;10.220;2023-08-01T09:01:26;6.85;;;4.35;;
58468;SDS011;44257;44.804;10.220;2023-08-01T09:03:52;7.75;;;3.63;;
58468;SDS011;44257;44.804;10.220;2023-08-01T09:06:22;11.15;;;4.45;;
58468;SDS011;44257;44.804;10.220;2023-08-01T09:08:56;12.27;;;4.60;;
58468;SDS011;44257;44.804;10.220;2023-08-01T09:11:34;9.88;;;4.07;;
58468;SDS011;44257;44.804;10.220;2023-08-01T09:14:06;7.68;;;3.85;;
58468;SDS011;44257;44.804;10.220;2023-08-01T09:16:32;13.07;;;4.57;;
58468;SDS011;44257;44.804;10.220;2023-08-01T09:18:59;13.02;;;4.65;;
58468;SDS011;44257;44.804;10.220;2023-08-01T09:21:24;7.45;;;3.83;;
58468;SDS011;44257;44.804;10.220;2023-08-01T09:23:50;12.70;;;4.57;;
58468;SDS011;44257;44.804;10.220;2023-08-01T09:26:17;14.55;;;4.28;;
58468;SDS011;44257;44.804;10.220;2023-08-01T09:28:57;10.35;;;4.28;;
58468;SDS011;44257;44.804;10.220;2023-08-01T09:31:30;11.27;;;4.97;;
58468;SDS011;44257;44.804;10.220;2023-08-01T09:34:00;7.18;;;4.22;;
58468;SDS011;44257;44.804;10.220;2023-08-01T09:36:30;7.50;;;4.30;;
58468;SDS011;44257;44.804;10.220;2023-08-01T09:39:00;7.93;;;3.65;;
58468;SDS011;44257;44.804;10.220;2023-08-01T09:41:31;16.33;;;4.65;;
58468;SDS011;44257;44.804;10.220;2023-08-01T09:43:57;9.65;;;4.05;;
58468;SDS011;44257;44.804;10.220;2023-08-01T09:46:23;20.83;;;5.65;;
58468;SDS011;44257;44.804;10.220;2023-08-01T09:48:49;9.93;;;4.65;;
58468;SDS011;44257;44.804;10.220;2023-08-01T09:51:16;13.68;;;5.38;;
58468;SDS011;44257;44.804;10.220;2023-08-01T09:53:49;16.15;;;4.68;;
58468;SDS011;44257;44.804;10.220;2023-08-01T09:56:23;9.35;;;4.20;;
58468;SDS011;44257;44.804;10.220;2023-08-01T09:58:52;9.27;;;4.68;;
58468;SDS011;44257;44.804;10.220;2023-08-01T10:01:19;9.27;;;4.07;;
58468;SDS011;44257;44.804;10.220;2023-08-01T10:03:48;10.15;;;4.90;;
58468;SDS011;44257;44.804;10.220;2023-08-01T10:06:19;11.77;;;5.25;;
58468;SDS011;44257;44.804;10.220;2023-08-01T10:08:48;16.92;;;4.80;;
58468;SDS011;44257;44.804;10.220;2023-08-01T10:11:17;10.00;;;4.35;;
58468;SDS011;44257;44.804;10.220;2023-08-01T10:13:45;6.38;;;4.40;;
58468;SDS011;44257;44.804;10.220;2023-08-01T10:16:12;10.23;;;4.60;;
58468;SDS011;44257;44.804;10.220;2023-08-01T10:18:40;14.32;;;4.43;;
58468;SDS011;44257;44.804;10.220;2023-08-01T10:21:16;20.50;;;5.55;;
58468;SDS011;44257;44.804;10.220;2023-08-01T10:23:44;7.30;;;4.05;;
58468;SDS011;44257;44.804;10.220;2023-08-01T10:26:11;6.40;;;3.88;;
58468;SDS011;44257;44.804;10.220;2023-08-01T10:28:39;6.28;;;3.60;;
58468;SDS011;44257;44.804;10.220;2023-08-01T10:31:16;6.43;;;4.28;;
58468;SDS011;44257;44.804;10.220;2023-08-01T10:33:44;11.68;;;5.85;;
58468;SDS011;44257;44.804;10.220;2023-08-01T10:36:30;8.10;;;4.18;;
58468;SDS011;44257;44.804;10.220;2023-08-01T10:38:59;6.05;;;4.10;;
58468;SDS011;44257;44.804;10.220;2023-08-01T10:41:27;8.43;;;4.90;;
58468;SDS011;44257;44.804;10.220;2023-08-01T10:44:04;5.90;;;4.28;;
58468;SDS011;44257;44.804;10.220;2023-08-01T10:46:50;7.30;;;4.85;;
58468;SDS011;44257;44.804;10.220;2023-08-01T10:49:18;7.22;;;4.10;;
58468;SDS011;44257;44.804;10.220;2023-08-01T10:51:48;11.88;;;5.15;;
58468;SDS011;44257;44.804;10.220;2023-08-01T10:54:20;10.40;;;5.13;;
58468;SDS011;44257;44.804;10.220;2023-08-01T10:56:51;8.20;;;4.45;;
58468;SDS011;44257;44.804;10.220;2023-08-01T10:59:26;7.00;;;4.47;;
58468;SDS011;44257;44.804;10.220;2023-08-01T11:01:53;9.63;;;4.40;;
58468;SDS011;44257;44.804;10.220;2023-08-01T11:04:23;10.30;;;5.10;;
58468;SDS011;44257;44.804;10.220;2023-08-01T11:06:55;8.73;;;4.60;;
58468;SDS011;44257;44.804;10.220;2023-08-01T11:09:22;6.75;;;4.32;;
58468;SDS011;44257;44.804;10.220;2023-08-01T11:11:56;6.97;;;4.18;;
58468;SDS011;44257;44.804;10.220;2023-08-01T11:14:28;7.00;;;3.85;;
58468;SDS011;44257;44.804;10.220;2023-08-01T11:17:06;8.65;;;4.90;;
58468;SDS011;44257;44.804;10.220;2023-08-01T11:19:34;10.43;;;4.95;;
58468;SDS011;44257;44.804;10.220;2023-08-01T11:22:07;8.93;;;4.68;;
58468;SDS011;44257;44.804;10.220;2023-08-01T11:25:00;7.00;;;4.40;;
58468;SDS011;44257;44.804;10.220;2023-08-01T11:27:35;12.38;;;4.93;;
58468;SDS011;44257;44.804;10.220;2023-08-01T11:30:06;8.90;;;4.75;;
58468;SDS011;44257;44.804;10.220;2023-08-01T11:32:34;8.18;;;4.40;;
58468;SDS011;44257;44.804;10.220;2023-08-01T11:35:03;7.65;;;4.72;;
58468;SDS011;44257;44.804;10.220;2023-08-01T11:37:40;8.00;;;4.85;;
58468;SDS011;44257;44.804;10.220;2023-08-01T11:40:06;8.50;;;4.45;;
58468;SDS011;44257;44.804;10.220;2023-08-01T11:42:32;9.48;;;4.40;;
58468;SDS011;44257;44.804;10.220;2023-08-01T11:45:11;9.50;;;4.45;;
58468;SDS011;44257;44.804;10.220;2023-08-01T11:47:44;7.95;;;4.30;;
58468;SDS011;44257;44.804;10.220;2023-08-01T11:50:36;9.52;;;4.82;;
58468;SDS011;44257;44.804;10.220;2023-08-01T11:53:03;9.98;;;4.15;;
58468;SDS011;44257;44.804;10.220;2023-08-01T11:55:42;10.30;;;4.93;;
58468;SDS011;44257;44.804;10.220;2023-08-01T11:58:11;10.52;;;4.47;;
58468;SDS011;44257;44.804;10.220;2023-08-01T12:00:39;7.78;;;4.03;;
58468;SDS011;44257;44.804;10.220;2023-08-01T12:08:18;7.72;;;4.47;;
58468;SDS011;44257;44.804;10.220;2023-08-01T12:10:44;9.40;;;4.28;;
58468;SDS011;44257;44.804;10.220;2023-08-01T12:13:19;9.73;;;4.28;;
58468;SDS011;44257;44.804;10.220;2023-08-01T12:15:50;7.80;;;4.70;;
58468;SDS011;44257;44.804;10.220;2023-08-01T12:18:21;15.23;;;4.93;;
58468;SDS011;44257;44.804;10.220;2023-08-01T12:20:51;14.07;;;5.15;;
58468;SDS011;44257;44.804;10.220;2023-08-01T12:23:18;17.48;;;6.13;;
58468;SDS011;44257;44.804;10.220;2023-08-01T12:25:44;16.05;;;5.30;;
58468;SDS011;44257;44.804;10.220;2023-08-01T12:28:12;15.35;;;5.20;;
58468;SDS011;44257;44.804;10.220;2023-08-01T12:30:45;8.98;;;4.40;;
58468;SDS011;44257;44.804;10.220;2023-08-01T12:33:14;17.60;;;4.97;;
58468;SDS011;44257;44.804;10.220;2023-08-01T12:38:14;11.35;;;4.78;;
58468;SDS011;44257;44.804;10.220;2023-08-01T12:40:40;10.50;;;4.97;;
58468;SDS011;44257;44.804;10.220;2023-08-01T12:43:06;11.75;;;5.28;;
58468;SDS011;44257;44.804;10.220;2023-08-01T12:45:32;19.35;;;4.90;;
58468;SDS011;44257;44.804;10.220;2023-08-01T12:47:58;11.50;;;5.00;;
58468;SDS011;44257;44.804;10.220;2023-08-01T12:50:24;16.02;;;5.68;;
58468;SDS011;44257;44.804;10.220;2023-08-01T12:52:53;13.98;;;4.57;;
58468;SDS011;44257;44.804;10.220;2023-08-01T12:57:50;12.07;;;4.82;;
58468;SDS011;44257;44.804;10.220;2023-08-01T13:00:19;25.98;;;6.55;;
58468;SDS011;44257;44.804;10.220;2023-08-01T13:02:50;8.95;;;4.57;;
58468;SDS011;44257;44.804;10.220;2023-08-01T13:05:16;6.43;;;3.95;;
58468;SDS011;44257;44.804;10.220;2023-08-01T13:07:42;8.85;;;4.82;;
58468;SDS011;44257;44.804;10.220;2023-08-01T13:10:24;13.00;;;4.68;;
58468;SDS011;44257;44.804;10.220;2023-08-01T13:12:53;10.07;;;4.63;;
58468;SDS011;44257;44.804;10.220;2023-08-01T13:15:29;10.52;;;4.50;;
58468;SDS011;44257;44.804;10.220;2023-08-01T13:18:02;8.02;;;4.43;;
58468;SDS011;44257;44.804;10.220;2023-08-01T13:20:27;13.63;;;5.15;;
58468;SDS011;44257;44.804;10.220;2023-08-01T13:23:02;31.65;;;7.03;;
58468;SDS011;44257;44.804;10.220;2023-08-01T13:25:31;13.27;;;4.57;;
58468;SDS011;44257;44.804;10.220;2023-08-01T13:27:56;27.25;;;6.38;;
58468;SDS011;44257;44.804;10.220;2023-08-01T13:30:25;22.77;;;6.88;;
58468;SDS011;44257;44.804;10.220;2023-08-01T13:32:51;12.10;;;5.63;;
58468;SDS011;44257;44.804;10.220;2023-08-01T13:35:17;32.42;;;6.32;;
58468;SDS011;44257;44.804;10.220;2023-08-01T13:37:46;18.27;;;5.43;;
58468;SDS011;44257;44.804;10.220;2023-08-01T13:40:14;20.85;;;5.63;;
58468;SDS011;44257;44.804;10.220;2023-08-01T13:42:43;6.70;;;3.92;;
58468;SDS011;44257;44.804;10.220;2023-08-01T13:45:09;8.77;;;4.63;;
58468;SDS011;44257;44.804;10.220;2023-08-01T13:47:35;13.63;;;5.13;;
58468;SDS011;44257;44.804;10.220;2023-08-01T13:50:04;10.50;;;4.30;;
58468;SDS011;44257;44.804;10.220;2023-08-01T13:52:33;7.88;;;4.55;;
58468;SDS011;44257;44.804;10.220;2023-08-01T13:54:59;9.32;;;4.80;;
58468;SDS011;44257;44.804;10.220;2023-08-01T13:57:25;10.40;;;4.63;;
58468;SDS011;44257;44.804;10.220;2023-08-01T13:59:51;8.80;;;4.53;;
58468;SDS011;44257;44.804;10.220;2023-08-01T14:02:22;7.00;;;4.10;;
58468;SDS011;44257;44.804;10.220;2023-08-01T14:04:51;8.68;;;3.97;;
58468;SDS011;44257;44.804;10.220;2023-08-01T14:07:22;7.97;;;4.38;;
58468;SDS011;44257;44.804;10.220;2023-08-01T14:09:48;10.70;;;5.40;;
58468;SDS011;44257;44.804;10.220;2023-08-01T14:12:15;7.35;;;4.72;;
58468;SDS011;44257;44.804;10.220;2023-08-01T14:14:44;9.85;;;4.95;;
58468;SDS011;44257;44.804;10.220;2023-08-01T14:17:17;8.05;;;4.70;;
58468;SDS011;44257;44.804;10.220;2023-08-01T14:19:43;10.30;;;4.72;;
58468;SDS011;44257;44.804;10.220;2023-08-01T14:22:09;10.95;;;4.95;;
58468;SDS011;44257;44.804;10.220;2023-08-01T14:24:35;9.55;;;4.53;;
58468;SDS011;44257;44.804;10.220;2023-08-01T14:27:00;7.95;;;4.47;;
58468;SDS011;44257;44.804;10.220;2023-08-01T14:29:26;9.35;;;4.90;;
58468;SDS011;44257;44.804;10.220;2023-08-01T14:31:52;9.23;;;4.30;;
58468;SDS011;44257;44.804;10.220;2023-08-01T14:34:18;7.43;;;4.40;;
58468;SDS011;44257;44.804;10.220;2023-08-01T14:36:44;7.85;;;4.45;;
58468;SDS011;44257;44.804;10.220;2023-08-01T14:39:10;8.43;;;4.03;;
58468;SDS011;44257;44.804;10.220;2023-08-01T14:41:35;9.18;;;4.32;;
58468;SDS011;44257;44.804;10.220;2023-08-01T14:44:04;9.43;;;4.53;;